CDT,Max TemperatureF,Mean TemperatureF,Min TemperatureF,Max Dew PointF,MeanDew PointF,Min DewpointF,Max Humidity, Mean Humidity, Min Humidity, Max Sea Level PressureIn, Mean Sea Level PressureIn, Min Sea Level PressureIn, Max VisibilityMiles, Mean VisibilityMiles, Min VisibilityMiles, Max Wind SpeedMPH, Mean Wind SpeedMPH, Max Gust SpeedMPH,PrecipitationIn, CloudCover, Events, WindDirDegrees
2013-7-1,80,71,62,57,53,46,82,54,32,30.06,30.03,29.98,10,10,10,15,7,23,0.00,0,,7
2013-7-2,80,70,60,54,51,48,72,46,34,30.11,30.07,30.03,10,10,10,15,5,18,0.00,0,,6
2013-7-3,84,70,57,55,50,45,82,45,26,30.14,30.08,30.02,10,10,10,9,2,,0.00,0,,170
2013-7-4,86,75,64,59,54,50,68,45,31,30.10,30.05,29.99,10,10,10,10,5,,0.00,0,,140
2013-7-5,89,76,64,59,56,54,73,45,31,30.07,30.02,29.96,10,10,10,12,5,16,0.00,0,,171
2013-7-6,89,76,64,61,58,54,77,54,29,30.05,30.01,29.97,10,10,10,9,5,,0.00,0,,168
2013-7-7,91,80,69,66,63,57,83,57,34,30.09,30.04,30.01,10,10,7,12,6,17,0.00,0,,161
2013-7-8,93,81,69,70,65,63,78,59,38,30.13,30.09,30.06,10,10,9,12,5,16,0.00,0,,186
2013-7-9,95,83,71,70,67,66,83,59,39,30.13,30.07,30.00,10,10,10,14,6,23,0.00,0,,198
2013-7-10,96,84,73,70,66,64,73,54,37,30.05,30.01,29.93,10,10,10,12,5,16,0.00,0,,250
2013-7-11,95,83,71,72,66,57,83,58,34,30.04,30.01,29.96,10,10,10,10,4,17,0.00,0,,65
2013-7-12,93,82,71,68,61,57,69,51,38,30.08,30.03,30.00,10,10,10,14,8,16,0.00,0,,107
2013-7-13,89,76,64,61,56,54,73,49,33,30.09,30.04,29.99,10,10,10,10,6,,0.00,0,,116
2013-7-14,87,76,66,61,56,46,73,48,24,30.08,30.04,30.00,10,10,10,14,7,18,0.00,0,,118
2013-7-15,91,81,71,66,63,61,83,59,38,30.19,30.13,30.07,10,10,10,15,8,21,0.00,3,Thunderstorm,105
2013-7-16,87,78,68,70,67,64,88,73,49,30.29,30.25,30.19,10,10,7,14,3,24,0.00,1,Thunderstorm,116
2013-7-17,93,81,69,70,66,61,88,62,34,30.35,30.29,30.22,10,10,9,9,4,,0.00,1,,133
2013-7-18,93,81,69,68,65,63,88,58,36,30.25,30.16,30.07,10,10,10,14,2,,0.00,1,,235
2013-7-19,93,82,71,70,65,64,78,61,38,30.08,30.03,29.96,10,10,10,17,5,22,0.00,1,,198
2013-7-20,93,81,69,70,67,64,88,68,41,30.01,29.96,29.87,10,10,6,18,5,24,0.07,1,Thunderstorm,200
2013-7-21,82,76,69,73,69,64,89,81,70,29.99,29.93,29.87,10,9,5,9,4,,0.25,3,,174
2013-7-22,89,78,66,72,66,57,88,69,46,30.01,29.92,29.86,10,10,9,17,8,28,0.37,2,Thunderstorm,191
2013-7-23,95,83,71,73,71,64,88,66,47,29.95,29.90,29.83,10,10,9,17,7,33,0.00,1,Thunderstorm,247
2013-7-24,84,76,68,70,67,64,88,74,58,30.05,29.99,29.89,10,10,5,22,8,32,0.44,4,Thunderstorm,2
2013-7-25,86,77,68,70,66,63,88,71,51,30.12,30.08,30.04,10,10,10,9,3,,0.00,1,,120
2013-7-26,73,70,66,68,66,63,88,85,78,30.07,30.04,30.01,10,9,2,10,4,,0.33,6,,145
2013-7-27,80,72,64,66,61,55,94,73,47,30.08,30.03,29.99,10,8,0,12,3,,0.00,4,,11
2013-7-28,78,71,64,63,60,55,83,70,54,30.06,30.04,30.00,10,10,10,15,3,16,0.00,1,,78
2013-7-29,87,78,68,72,67,63,88,71,55,30.08,30.05,30.01,10,10,10,14,9,21,0.00,2,,150
2013-7-30,86,78,69,72,70,66,94,79,62,30.07,30.04,30.02,10,9,1,13,6,21,2.27,5,Thunderstorm,222
2013-7-31,87,80,73,73,71,68,94,76,58,30.09,30.06,30.02,10,9,3,15,4,20,0.00,2,Thunderstorm,15